Time;durP1;ratioP1;P1;durP2;ratioP2;P2;SDS_P1;SDS_P2;PMS_P1;PMS_P2;Temp;Humidity;BMP_temperature;BMP_pressure;BME280_temperature;BME280_humidity;BME280_pressure;Samples;Min_cycle;Max_cycle;Signal;HPM_P1;HPM_P2
2021/11/13 00:00:49;;;;;;;28.27;15.38;;;;;;;2.82;65.91;99834.97;10391105;28;20048;-66
2021/11/13 00:05:51;;;;;;;22.40;13.52;;;;;;;2.79;65.80;99822.16;10389614;28;20115;-66
2021/11/13 00:10:52;;;;;;;24.73;15.43;;;;;;;2.80;66.03;99808.34;10389872;28;20056;-66
2021/11/13 00:15:55;;;;;;;20.98;12.57;;;;;;;2.59;66.38;99821.03;10389854;28;20097;-65
2021/11/13 00:20:56;;;;;;;18.77;11.85;;;;;;;2.53;66.34;99824.66;10390408;28;20413;-65
2021/11/13 00:25:58;;;;;;;20.35;12.25;;;;;;;2.43;66.62;99823.22;10390260;28;20089;-66
2021/11/13 00:31:00;;;;;;;21.35;11.65;;;;;;;2.39;66.72;99841.41;10389120;28;20051;-66
2021/11/13 00:36:02;;;;;;;22.98;13.55;;;;;;;2.65;66.78;99813.13;10389446;28;20053;-66
2021/11/13 00:41:04;;;;;;;18.05;11.85;;;;;;;2.82;66.32;99806.56;10390051;28;20057;-67
2021/11/13 00:46:06;;;;;;;24.20;13.27;;;;;;;2.72;66.30;99802.59;10389923;28;20055;-66
2021/11/13 00:51:08;;;;;;;24.98;14.20;;;;;;;2.59;66.24;99811.56;10389854;28;20045;-66
2021/11/13 00:56:09;;;;;;;21.30;12.80;;;;;;;2.48;66.78;99811.03;10388522;28;20053;-66
2021/11/13 01:01:11;;;;;;;24.23;14.02;;;;;;;2.54;66.52;99804.84;10389419;28;20042;-66
2021/11/13 01:06:13;;;;;;;24.25;14.45;;;;;;;2.75;66.25;99797.31;10387678;28;20489;-66
2021/11/13 01:11:16;;;;;;;23.90;14.48;;;;;;;2.82;66.26;99808.31;10388923;28;20064;-66
2021/11/13 01:16:18;;;;;;;24.63;13.48;;;;;;;2.94;65.90;99795.88;10388541;28;20164;-66
2021/11/13 01:21:21;;;;;;;24.00;14.35;;;;;;;3.04;65.86;99794.69;10387962;28;20045;-66
2021/11/13 01:26:23;;;;;;;23.23;13.25;;;;;;;2.93;65.69;99790.72;10387884;28;20053;-66
2021/11/13 01:31:25;;;;;;;20.75;12.82;;;;;;;2.91;65.81;99795.94;10387726;28;20046;-66
2021/11/13 01:36:26;;;;;;;22.80;13.38;;;;;;;2.91;65.85;99798.53;10385997;28;20060;-66
2021/11/13 01:41:29;;;;;;;21.00;12.85;;;;;;;2.94;65.68;99797.59;10387828;28;20496;-66
2021/11/13 01:46:31;;;;;;;21.02;12.65;;;;;;;2.86;65.74;99782.34;10387619;28;20124;-66
2021/11/13 01:51:34;;;;;;;19.10;12.35;;;;;;;2.86;65.94;99795.25;10386221;28;20056;-66
2021/11/13 01:56:38;;;;;;;21.63;12.82;;;;;;;2.95;65.99;99779.47;10385861;28;20085;-66
2021/11/13 02:01:41;;;;;;;22.45;13.77;;;;;;;2.92;65.81;99784.72;10387114;28;20047;-66
2021/11/13 02:06:42;;;;;;;25.70;13.88;;;;;;;3.01;65.75;99781.84;10386799;28;20363;-66
2021/11/13 02:11:44;;;;;;;20.45;12.75;;;;;;;3.01;65.78;99787.00;10386302;28;20297;-66
2021/11/13 02:16:46;;;;;;;20.52;11.98;;;;;;;3.09;66.04;99776.44;10385283;28;20266;-66
2021/11/13 02:21:48;;;;;;;20.63;12.75;;;;;;;3.21;65.93;99764.88;10386077;28;20057;-66
2021/11/13 02:26:49;;;;;;;21.25;12.88;;;;;;;3.14;65.67;99764.22;10385923;28;20053;-66
2021/11/13 02:31:54;;;;;;;18.73;11.43;;;;;;;3.07;65.63;99763.56;10385784;28;20077;-66
2021/11/13 02:36:56;;;;;;;23.23;12.98;;;;;;;3.10;65.80;99746.28;10385039;28;20057;-66
2021/11/13 02:41:58;;;;;;;21.77;13.43;;;;;;;2.86;66.47;99772.00;10385160;28;20049;-66
2021/11/13 02:47:01;;;;;;;25.77;14.15;;;;;;;3.09;66.51;99748.00;10385060;28;20081;-66
2021/11/13 02:52:03;;;;;;;25.92;14.25;;;;;;;3.26;66.18;99760.38;10383426;28;20531;-66
2021/11/13 02:57:05;;;;;;;24.90;13.57;;;;;;;3.41;66.01;99745.22;10384368;28;20075;-66
2021/11/13 03:02:07;;;;;;;26.08;15.27;;;;;;;3.45;65.75;99726.13;10386497;28;20055;-67
2021/11/13 03:07:09;;;;;;;27.42;14.07;;;;;;;3.50;65.73;99720.78;10392006;28;20049;-66
2021/11/13 03:12:10;;;;;;;23.40;14.30;;;;;;;3.56;65.66;99715.41;10391442;28;20055;-66
2021/11/13 03:17:13;;;;;;;24.52;13.82;;;;;;;3.49;65.71;99725.13;10391442;28;20059;-65
2021/11/13 03:22:14;;;;;;;26.90;14.70;;;;;;;3.31;65.92;99724.91;10391204;28;20597;-66
2021/11/13 03:27:16;;;;;;;27.73;14.68;;;;;;;3.33;66.13;99710.19;10390730;28;20053;-66
2021/11/13 03:32:18;;;;;;;25.27;14.10;;;;;;;3.44;65.76;99710.66;10389915;28;20055;-66
2021/11/13 03:37:20;;;;;;;23.88;13.85;;;;;;;3.30;65.86;99705.13;10389748;28;20057;-66
2021/11/13 03:42:24;;;;;;;23.85;13.07;;;;;;;3.16;66.45;99709.91;10391663;28;20050;-66
2021/11/13 03:47:26;;;;;;;26.90;15.13;;;;;;;3.24;66.63;99707.91;10389484;28;20560;-66
2021/11/13 03:52:27;;;;;;;25.55;14.52;;;;;;;3.41;66.37;99678.03;10389124;28;20132;-66
2021/11/13 03:57:29;;;;;;;24.52;13.95;;;;;;;3.44;66.25;99687.38;10388667;28;20053;-66
2021/11/13 04:02:31;;;;;;;23.55;13.88;;;;;;;3.27;66.17;99681.97;10388205;28;20251;-66
2021/11/13 04:07:33;;;;;;;27.88;15.43;;;;;;;3.21;66.34;99679.59;10386379;28;20050;-66
2021/11/13 04:12:35;;;;;;;24.77;14.80;;;;;;;3.06;66.77;99680.94;10383055;28;20046;-66
2021/11/13 04:17:38;;;;;;;26.42;14.55;;;;;;;3.07;66.92;99677.47;10383378;28;20564;-65
2021/11/13 04:22:40;;;;;;;26.35;14.82;;;;;;;3.12;66.85;99664.38;10383469;28;20046;-66
2021/11/13 04:27:43;;;;;;;28.80;16.38;;;;;;;2.96;67.13;99659.75;10377320;28;20059;-67
2021/11/13 04:32:46;;;;;;;25.85;14.70;;;;;;;2.76;67.82;99661.31;10381735;28;20052;-66
2021/11/13 04:37:54;;;;;;;27.23;14.77;;;;;;;2.73;68.53;99658.81;10383159;28;20267;-66
2021/11/13 04:42:56;;;;;;;26.83;14.82;;;;;;;2.85;68.21;99691.97;10390801;28;20049;-66
2021/11/13 04:47:58;;;;;;;28.75;14.50;;;;;;;3.11;67.98;99693.72;10390227;28;20144;-66
2021/11/13 04:53:00;;;;;;;23.33;13.77;;;;;;;3.33;67.27;99680.03;10390464;28;20045;-66
2021/11/13 04:58:02;;;;;;;22.98;13.52;;;;;;;3.50;67.27;99672.50;10389294;28;20685;-66
2021/11/13 05:03:04;;;;;;;23.85;13.65;;;;;;;3.65;67.05;99668.56;10387351;28;20394;-66
2021/11/13 05:08:06;;;;;;;22.77;13.38;;;;;;;3.75;66.63;99677.66;10389479;28;20140;-66
2021/11/13 05:13:08;;;;;;;23.77;14.70;;;;;;;3.84;66.37;99670.44;10388384;28;20417;-66
2021/11/13 05:18:10;;;;;;;24.13;14.93;;;;;;;3.92;66.22;99667.59;10388016;28;20057;-66
2021/11/13 05:23:11;;;;;;;24.60;14.80;;;;;;;3.91;66.13;99676.22;10387344;28;20055;-66
2021/11/13 05:28:13;;;;;;;26.30;13.52;;;;;;;3.80;66.17;99678.34;10386721;28;20045;-66
2021/11/13 05:33:15;;;;;;;23.50;14.18;;;;;;;3.72;66.46;99677.78;10386230;28;20510;-66
2021/11/13 05:38:17;;;;;;;23.08;13.02;;;;;;;3.80;66.56;99681.75;10388095;28;20156;-66
2021/11/13 05:43:19;;;;;;;23.85;14.27;;;;;;;3.81;66.46;99667.94;10384415;28;20144;-66
2021/11/13 05:48:21;;;;;;;29.10;14.80;;;;;;;3.78;66.31;99669.81;10384736;28;20136;-66
2021/11/13 05:53:23;;;;;;;25.10;14.80;;;;;;;3.75;66.54;99663.00;10385255;28;20488;-66
2021/11/13 05:58:25;;;;;;;21.73;13.32;;;;;;;3.79;66.90;99664.56;10385667;28;20151;-66
2021/11/13 06:03:27;;;;;;;23.33;13.95;;;;;;;3.92;66.71;99670.19;10386658;28;20631;-66
2021/11/13 06:08:28;;;;;;;31.35;15.20;;;;;;;4.01;66.54;99672.41;10386122;28;20053;-66
2021/11/13 06:13:30;;;;;;;25.75;14.38;;;;;;;3.98;66.34;99676.84;10385561;28;20049;-66
2021/11/13 06:18:32;;;;;;;26.67;14.57;;;;;;;3.86;66.87;99678.16;10386231;28;20049;-66
2021/11/13 06:23:36;;;;;;;25.40;14.55;;;;;;;3.88;66.81;99685.84;10382657;28;20061;-66
2021/11/13 06:28:38;;;;;;;27.20;14.85;;;;;;;3.93;66.65;99686.53;10384458;28;20144;-65
2021/11/13 06:33:40;;;;;;;24.27;14.18;;;;;;;4.04;66.50;99684.41;10385550;28;20053;-65
2021/11/13 06:38:41;;;;;;;21.52;13.75;;;;;;;4.13;66.42;99684.06;10385261;28;20140;-65
2021/11/13 06:43:43;;;;;;;25.98;14.55;;;;;;;4.17;66.29;99686.44;10385098;28;20046;-65
2021/11/13 06:48:45;;;;;;;25.58;14.85;;;;;;;4.23;66.18;99693.16;10386454;28;20056;-65
2021/11/13 06:53:46;;;;;;;24.75;14.30;;;;;;;4.28;66.05;99699.00;10385228;28;20075;-65
2021/11/13 06:58:48;;;;;;;21.10;13.32;;;;;;;4.34;65.98;99696.19;10385426;28;20049;-65
2021/11/13 07:03:50;;;;;;;26.77;14.82;;;;;;;4.34;65.96;99693.59;10384808;28;20057;-65
2021/11/13 07:08:51;;;;;;;28.92;15.60;;;;;;;4.38;65.67;99700.34;10384986;28;20059;-65
2021/11/13 07:13:53;;;;;;;28.60;14.82;;;;;;;4.13;66.30;99703.00;10384162;28;20131;-64
2021/11/13 07:18:55;;;;;;;25.52;15.02;;;;;;;3.89;67.01;99703.91;10384884;28;20088;-65
2021/11/13 07:23:57;;;;;;;31.42;16.38;;;;;;;3.80;67.40;99691.28;10383523;28;20049;-65
2021/11/13 07:29:04;;;;;;;24.55;14.50;;;;;;;3.73;67.73;99705.31;10384067;28;20132;-65
2021/11/13 07:34:05;;;;;;;28.88;15.73;;;;;;;3.82;67.65;99697.25;10383698;28;20041;-64
2021/11/13 07:39:07;;;;;;;30.05;16.52;;;;;;;3.85;67.64;99708.34;10384992;28;20136;-64
2021/11/13 07:44:09;;;;;;;33.38;17.45;;;;;;;3.83;68.04;99706.69;10384337;28;20540;-64
2021/11/13 07:49:11;;;;;;;30.88;16.13;;;;;;;3.69;68.40;99708.91;10383477;28;20073;-64
2021/11/13 07:54:13;;;;;;;32.85;17.67;;;;;;;3.77;68.29;99712.94;10383876;28;20124;-64
2021/11/13 07:59:15;;;;;;;32.15;17.90;;;;;;;3.89;68.32;99703.91;10383007;28;20057;-64
2021/11/13 08:04:17;;;;;;;26.65;16.20;;;;;;;4.05;68.31;99702.44;10383859;28;20049;-64
2021/11/13 08:09:19;;;;;;;29.42;16.65;;;;;;;4.33;67.96;99702.28;10379632;28;20049;-64
2021/11/13 08:14:20;;;;;;;31.33;17.25;;;;;;;4.51;67.53;99702.41;10379659;28;20141;-65
2021/11/13 08:19:22;;;;;;;27.30;16.83;;;;;;;4.70;67.35;99693.00;10389453;28;20140;-64
2021/11/13 08:24:24;;;;;;;31.02;17.25;;;;;;;4.87;67.09;99697.50;10390036;28;20103;-65
2021/11/13 08:29:26;;;;;;;29.13;17.23;;;;;;;4.91;66.93;99688.72;10389603;28;20601;-65
2021/11/13 08:34:27;;;;;;;30.95;17.65;;;;;;;4.80;66.95;99693.47;10389254;28;20062;-65
2021/11/13 08:39:34;;;;;;;35.00;18.38;;;;;;;4.70;67.54;99692.16;10377888;28;20059;-64
2021/11/13 08:44:38;;;;;;;38.83;19.35;;;;;;;4.68;67.98;99692.22;10383217;28;20153;-64
2021/11/13 08:49:44;;;;;;;47.08;20.80;;;;;;;4.82;67.82;99693.44;10387124;28;20051;-64
2021/11/13 08:54:48;;;;;;;34.97;18.02;;;;;;;4.71;67.81;99688.66;10388399;28;20041;-64
2021/11/13 08:59:49;;;;;;;33.67;19.02;;;;;;;4.97;67.56;99690.19;10386270;28;20180;-65
2021/11/13 09:04:53;;;;;;;38.95;19.77;;;;;;;5.06;67.53;99689.84;10387921;28;20076;-64
2021/11/13 09:09:55;;;;;;;41.60;20.30;;;;;;;5.11;67.70;99698.25;10387483;28;20053;-66
2021/11/13 09:15:03;;;;;;;37.00;18.58;;;;;;;5.30;67.53;99681.03;10386281;28;20060;-66
2021/11/13 09:20:07;;;;;;;37.63;20.05;;;;;;;5.37;67.39;99687.66;10387555;28;20413;-66
2021/11/13 09:25:09;;;;;;;42.97;21.55;;;;;;;5.35;67.46;99697.25;10384802;28;20053;-65
2021/11/13 09:30:15;;;;;;;48.22;21.77;;;;;;;5.28;67.79;99701.84;10388678;28;20544;-66
2021/11/13 09:35:18;;;;;;;44.70;20.90;;;;;;;5.33;67.89;99714.63;10386431;28;20573;-65
2021/11/13 09:40:22;;;;;;;65.03;25.65;;;;;;;5.49;67.85;99705.28;10387977;28;20056;-65
2021/11/13 09:45:24;;;;;;;53.22;22.65;;;;;;;5.54;67.60;99699.00;10386050;28;20078;-65
2021/11/13 09:50:34;;;;;;;35.33;18.63;;;;;;;5.69;67.52;99712.22;10387316;28;20050;-77
2021/11/13 09:55:36;;;;;;;49.55;23.02;;;;;;;5.65;67.78;99710.66;10387342;28;20136;-77
2021/11/13 10:00:39;;;;;;;43.33;21.35;;;;;;;5.58;67.78;99699.69;10387618;28;20492;-77
2021/11/13 10:05:41;;;;;;;34.50;19.80;;;;;;;5.71;67.48;99692.22;10386659;28;20056;-76
2021/11/13 10:10:45;;;;;;;40.70;21.42;;;;;;;5.78;67.17;99696.25;10385293;28;20095;-75
2021/11/13 10:15:51;;;;;;;45.75;21.45;;;;;;;5.80;67.72;99695.25;10387509;28;20057;-76
2021/11/13 10:20:56;;;;;;;40.22;20.08;;;;;;;5.76;67.71;99687.69;10384900;28;20045;-78
2021/11/13 10:26:07;;;;;;;32.20;18.35;;;;;;;5.86;67.23;99679.41;10384416;28;20041;-78
2021/11/13 10:31:19;;;;;;;46.05;22.13;;;;;;;5.94;67.37;99685.09;10385769;28;20052;-78
2021/11/13 10:36:28;;;;;;;45.75;22.58;;;;;;;6.01;67.34;99677.88;10386538;28;20057;-78
2021/11/13 10:41:30;;;;;;;38.67;19.58;;;;;;;6.07;67.08;99677.59;10385681;28;20049;-78
2021/11/13 10:46:31;;;;;;;36.83;19.35;;;;;;;6.15;66.99;99678.94;10386250;28;20054;-77
2021/11/13 10:51:34;;;;;;;40.58;19.85;;;;;;;6.23;66.80;99669.06;10385506;28;20049;-76
2021/11/13 10:56:45;;;;;;;37.10;20.70;;;;;;;6.20;66.95;99671.81;10383757;28;20057;-76
2021/11/13 11:01:48;;;;;;;38.00;21.23;;;;;;;6.24;67.16;99657.78;10385627;28;20160;-77
2021/11/13 11:06:53;;;;;;;37.38;20.15;;;;;;;6.44;66.55;99662.06;10384378;28;20140;-76
2021/11/13 11:11:58;;;;;;;34.15;19.77;;;;;;;6.30;66.59;99657.50;10384876;28;20425;-76
2021/11/13 11:17:04;;;;;;;36.83;19.88;;;;;;;6.51;66.70;99649.63;10385019;28;20054;-77
2021/11/13 11:22:14;;;;;;;37.03;20.55;;;;;;;6.51;66.16;99654.81;10384969;28;20129;-76
2021/11/13 11:27:25;;;;;;;33.08;18.67;;;;;;;6.34;66.71;99653.00;10384566;28;20160;-75
2021/11/13 11:32:28;;;;;;;38.85;21.25;;;;;;;6.29;66.69;99649.78;10384308;28;20063;-77
2021/11/13 11:37:36;;;;;;;33.80;20.15;;;;;;;6.41;66.63;99645.78;10384501;28;20678;-76
2021/11/13 11:42:40;;;;;;;42.38;22.17;;;;;;;6.45;66.85;99644.72;10382100;28;20053;-77
2021/11/13 11:47:44;;;;;;;29.45;19.40;;;;;;;6.59;66.59;99637.09;10382490;28;20540;-77
2021/11/13 11:52:46;;;;;;;34.63;20.48;;;;;;;6.50;66.73;99645.31;10384383;28;20536;-77
2021/11/13 11:57:59;;;;;;;39.47;22.13;;;;;;;6.48;67.29;99636.75;10382359;28;20084;-77
2021/11/13 12:03:03;;;;;;;33.88;20.52;;;;;;;6.74;66.62;99637.19;10382748;28;20136;-77
2021/11/13 12:08:23;;;;;;;38.58;22.42;;;;;;;6.76;67.06;99637.97;10383421;28;20782;-78
2021/11/13 12:13:30;;;;;;;39.33;20.95;;;;;;;6.67;66.89;99637.56;10382289;28;20088;-76
2021/11/13 12:18:35;;;;;;;34.75;20.92;;;;;;;6.77;66.85;99637.06;10383574;28;20203;-77
2021/11/13 12:23:48;;;;;;;35.50;21.52;;;;;;;6.87;66.99;99640.03;10383698;28;20095;-76
2021/11/13 12:28:54;;;;;;;37.45;21.38;;;;;;;6.92;66.90;99635.44;10383724;28;20049;-77
2021/11/13 12:34:08;;;;;;;32.60;19.05;;;;;;;7.01;66.78;99624.59;10383929;28;20050;-77
2021/11/13 12:39:12;;;;;;;40.22;22.25;;;;;;;7.01;66.61;99622.84;10383149;28;20061;-77
2021/11/13 12:44:18;;;;;;;35.88;20.92;;;;;;;7.07;66.92;99626.88;10383039;28;20091;-78
2021/11/13 12:49:26;;;;;;;35.00;21.42;;;;;;;7.06;66.92;99620.03;10383075;28;20056;-78
2021/11/13 12:54:31;;;;;;;31.90;20.92;;;;;;;7.15;66.55;99627.34;10382491;28;20136;-76
2021/11/13 12:59:37;;;;;;;33.25;21.02;;;;;;;7.06;67.08;99630.41;10385888;28;20124;-78
2021/11/13 13:04:41;;;;;;;37.60;22.83;;;;;;;7.02;67.12;99629.72;10390174;28;20092;-77
2021/11/13 13:09:50;;;;;;;42.42;23.33;;;;;;;6.91;67.58;99633.78;10389924;28;20049;-76
2021/11/13 13:15:13;;;;;;;48.92;25.48;;;;;;;7.03;67.81;99635.75;10389688;28;20655;-78
2021/11/13 13:20:32;;;;;;;41.92;23.02;;;;;;;7.33;67.57;99634.19;10389684;28;20247;-77
2021/11/13 13:25:37;;;;;;;36.13;21.25;;;;;;;7.43;66.79;99638.00;10388491;28;20540;-77
2021/11/13 13:30:39;;;;;;;32.90;20.30;;;;;;;7.52;66.48;99640.16;10389424;28;20045;-77
2021/11/13 13:35:42;;;;;;;34.97;21.27;;;;;;;7.41;66.78;99636.41;10388901;28;20063;-75
2021/11/13 13:40:50;;;;;;;34.38;21.73;;;;;;;7.33;66.62;99629.00;10388838;28;20050;-75
2021/11/13 13:46:06;;;;;;;42.25;24.08;;;;;;;7.23;67.67;99627.78;10388320;28;20136;-74
2021/11/13 13:51:40;;;;;;;30.45;19.17;;;;;;;7.31;67.24;99628.25;10387732;28;20060;-75
2021/11/13 13:56:46;;;;;;;40.70;23.35;;;;;;;7.22;67.29;99631.31;10375429;28;20309;-74
2021/11/13 14:01:57;;;;;;;42.38;24.80;;;;;;;7.12;68.07;99636.13;10385891;28;20054;-75
2021/11/13 14:07:22;;;;;;;41.40;24.15;;;;;;;7.18;68.08;99633.22;10388169;28;20057;-75
2021/11/13 14:12:37;;;;;;;35.17;21.80;;;;;;;7.28;67.70;99635.38;10386867;28;20433;-74
2021/11/13 14:17:39;;;;;;;47.42;24.52;;;;;;;7.29;67.46;99632.69;10387548;28;20536;-75
2021/11/13 14:22:56;;;;;;;48.10;26.02;;;;;;;7.26;67.86;99637.19;10386467;28;20046;-74
2021/11/13 14:27:58;;;;;;;39.83;23.70;;;;;;;7.30;67.54;99636.13;10387354;28;20057;-74
2021/11/13 14:33:00;;;;;;;38.70;22.63;;;;;;;7.33;67.84;99644.59;10385787;28;20168;-75
2021/11/13 14:38:07;;;;;;;27.40;18.73;;;;;;;7.41;67.64;99639.00;10384942;28;20053;-75
2021/11/13 14:43:25;;;;;;;33.13;19.55;;;;;;;7.47;67.79;99639.53;10385937;28;20050;-75
2021/11/13 14:48:26;;;;;;;45.53;24.55;;;;;;;7.60;67.82;99640.59;10386129;28;20044;-74
2021/11/13 14:53:28;;;;;;;58.05;29.55;;;;;;;7.59;67.83;99636.28;10385605;28;20055;-75
2021/11/13 14:58:31;;;;;;;50.67;26.95;;;;;;;7.64;67.73;99642.13;10385738;28;20457;-74
2021/11/13 15:03:36;;;;;;;60.97;31.30;;;;;;;7.70;67.52;99639.19;10385295;28;20046;-75
2021/11/13 15:08:39;;;;;;;82.53;36.78;;;;;;;7.71;67.71;99643.47;10384693;28;20516;-75
2021/11/13 15:13:47;;;;;;;98.45;40.47;;;;;;;7.70;67.88;99636.59;10384292;28;20041;-74
2021/11/13 15:18:52;;;;;;;61.58;30.42;;;;;;;7.54;68.09;99642.66;10385082;28;20063;-74
2021/11/13 15:24:08;;;;;;;60.75;30.40;;;;;;;7.41;68.39;99642.47;10383106;28;20056;-76
2021/11/13 15:29:24;;;;;;;72.60;30.58;;;;;;;7.42;68.46;99645.91;10384979;28;20046;-75
2021/11/13 15:34:27;;;;;;;48.50;25.58;;;;;;;7.45;68.40;99643.97;10384195;28;20137;-75
2021/11/13 15:39:29;;;;;;;52.00;27.55;;;;;;;7.36;68.42;99649.66;10384981;28;20719;-75
2021/11/13 15:44:43;;;;;;;52.50;27.60;;;;;;;7.31;68.67;99656.84;10384680;28;20419;-74
2021/11/13 15:50:03;;;;;;;73.38;31.73;;;;;;;7.24;69.11;99658.09;10384085;28;20049;-75
2021/11/13 15:55:09;;;;;;;59.35;29.02;;;;;;;7.27;68.89;99660.53;10384143;28;20049;-74
2021/11/13 16:00:22;;;;;;;72.82;32.30;;;;;;;7.33;68.82;99655.00;10384467;28;20057;-75
2021/11/13 16:05:26;;;;;;;74.88;33.25;;;;;;;7.30;68.99;99662.13;10384094;28;20037;-75
2021/11/13 16:10:29;;;;;;;58.13;28.60;;;;;;;7.31;68.91;99666.41;10383412;28;20540;-74
2021/11/13 16:15:34;;;;;;;68.28;32.33;;;;;;;7.24;68.90;99671.09;10383168;28;20152;-75
2021/11/13 16:20:36;;;;;;;79.20;32.75;;;;;;;7.30;69.01;99670.78;10384064;28;20311;-75
2021/11/13 16:25:37;;;;;;;42.92;25.10;;;;;;;7.28;69.04;99674.38;10383605;28;20140;-74
2021/11/13 16:30:39;;;;;;;50.10;26.50;;;;;;;7.11;69.36;99685.63;10381669;28;20057;-67
2021/11/13 16:35:41;;;;;;;46.33;25.40;;;;;;;6.97;69.74;99690.66;10388484;28;20161;-67
2021/11/13 16:41:01;;;;;;;42.08;25.25;;;;;;;6.92;70.40;99684.81;10391272;28;20160;-67
2021/11/13 16:46:06;;;;;;;70.50;30.65;;;;;;;7.01;69.89;99689.59;10391254;28;20053;-67
2021/11/13 16:51:10;;;;;;;55.92;28.33;;;;;;;7.01;69.88;99705.19;10390566;28;20049;-67
2021/11/13 16:56:16;;;;;;;64.18;28.35;;;;;;;7.03;69.88;99709.41;10388923;28;20045;-67
2021/11/13 17:01:25;;;;;;;48.17;25.27;;;;;;;6.75;70.27;99709.06;10390607;28;20140;-66
2021/11/13 17:06:27;;;;;;;55.90;26.48;;;;;;;6.64;70.66;99713.91;10390402;28;20100;-66
2021/11/13 17:11:32;;;;;;;50.28;24.33;;;;;;;6.57;70.82;99719.47;10389798;28;20132;-66
2021/11/13 17:16:38;;;;;;;37.17;20.45;;;;;;;6.47;71.04;99726.84;10389908;28;20053;-66
2021/11/13 17:21:43;;;;;;;54.03;26.08;;;;;;;6.46;71.01;99737.31;10389921;28;20140;-66
2021/11/13 17:26:45;;;;;;;37.22;21.80;;;;;;;6.52;70.96;99739.63;10390202;28;20732;-66
2021/11/13 17:31:47;;;;;;;42.05;23.50;;;;;;;6.63;70.70;99734.78;10388538;28;20140;-66
2021/11/13 17:36:49;;;;;;;37.92;21.35;;;;;;;6.64;70.47;99741.66;10389340;28;20059;-66
2021/11/13 17:41:51;;;;;;;37.67;20.05;;;;;;;6.59;70.49;99746.22;10388454;28;20056;-66
2021/11/13 17:46:53;;;;;;;35.08;19.98;;;;;;;6.52;70.61;99747.41;10387907;28;20517;-66
2021/11/13 17:51:55;;;;;;;34.90;20.08;;;;;;;6.55;70.38;99757.69;10388026;28;20049;-66
2021/11/13 17:56:57;;;;;;;38.42;21.10;;;;;;;6.54;70.46;99753.38;10389235;28;20049;-66
2021/11/13 18:01:59;;;;;;;63.22;27.83;;;;;;;6.48;70.76;99751.91;10383097;28;20136;-66
2021/11/13 18:07:02;;;;;;;38.88;21.35;;;;;;;6.45;70.89;99761.59;10385424;28;20064;-66
2021/11/13 18:12:05;;;;;;;38.92;22.23;;;;;;;6.42;70.93;99762.59;10382302;28;20050;-66
2021/11/13 18:17:07;;;;;;;39.30;22.27;;;;;;;6.43;70.74;99763.44;10386117;28;20386;-66
2021/11/13 18:22:09;;;;;;;40.33;22.70;;;;;;;6.45;70.80;99767.63;10373522;28;20057;-66
2021/11/13 18:27:11;;;;;;;37.00;21.27;;;;;;;6.51;70.51;99769.94;10384970;28;20505;-66
2021/11/13 18:32:12;;;;;;;42.85;22.52;;;;;;;6.49;70.67;99769.16;10383942;28;20152;-66
2021/11/13 18:37:14;;;;;;;33.33;19.65;;;;;;;6.42;70.80;99767.78;10381239;28;20514;-66
2021/11/13 18:42:16;;;;;;;51.65;25.98;;;;;;;6.45;70.79;99775.41;10384709;28;20135;-66
2021/11/13 18:47:18;;;;;;;42.42;23.35;;;;;;;6.37;70.93;99777.53;10385418;28;20565;-66
2021/11/13 18:52:19;;;;;;;55.38;26.48;;;;;;;6.44;70.85;99780.69;10382119;28;20092;-66
2021/11/13 18:57:21;;;;;;;51.92;25.92;;;;;;;6.54;70.73;99776.75;10382104;28;20057;-66
2021/11/13 19:02:23;;;;;;;47.33;25.00;;;;;;;6.59;70.47;99778.25;10383577;28;20056;-65
2021/11/13 19:07:25;;;;;;;57.10;27.27;;;;;;;6.56;70.61;99774.94;10384384;28;20048;-66
2021/11/13 19:12:27;;;;;;;44.38;24.52;;;;;;;6.57;70.36;99787.84;10384731;28;20140;-66
2021/11/13 19:17:29;;;;;;;45.97;24.30;;;;;;;6.59;70.45;99793.00;10378008;28;20061;-66
2021/11/13 19:22:31;;;;;;;57.38;27.60;;;;;;;6.62;70.41;99790.25;10384268;28;20128;-66
2021/11/13 19:27:33;;;;;;;79.20;31.52;;;;;;;6.61;70.53;99788.56;10383624;28;20221;-66
2021/11/13 19:32:35;;;;;;;46.33;24.58;;;;;;;6.67;70.26;99791.75;10384135;28;20049;-66
2021/11/13 19:37:37;;;;;;;52.65;26.20;;;;;;;6.64;70.21;99783.22;10381194;28;20056;-66
2021/11/13 19:42:40;;;;;;;41.15;24.05;;;;;;;6.71;70.27;99790.69;10383981;28;20049;-66
2021/11/13 19:47:42;;;;;;;51.60;26.13;;;;;;;6.73;70.28;99790.59;10380941;28;20049;-66
2021/11/13 19:52:44;;;;;;;48.78;25.75;;;;;;;6.77;70.16;99790.41;10383274;28;20063;-66
2021/11/13 19:57:46;;;;;;;60.85;28.30;;;;;;;6.84;69.89;99798.72;10382653;28;20053;-66
2021/11/13 20:02:48;;;;;;;49.63;25.95;;;;;;;6.93;69.57;99793.13;10381779;28;20088;-66
2021/11/13 20:07:50;;;;;;;71.75;30.85;;;;;;;7.00;69.47;99799.69;10383902;28;20049;-66
2021/11/13 20:12:52;;;;;;;76.25;31.08;;;;;;;7.06;69.55;99797.66;10390166;28;20059;-66
2021/11/13 20:17:54;;;;;;;91.55;33.75;;;;;;;6.96;69.48;99801.59;10388200;28;20156;-66
2021/11/13 20:22:56;;;;;;;45.28;25.00;;;;;;;6.96;69.65;99798.16;10389832;28;20149;-65
2021/11/13 20:27:58;;;;;;;60.45;27.20;;;;;;;7.06;69.49;99804.63;10391093;28;20216;-66
2021/11/13 20:33:00;;;;;;;40.00;23.83;;;;;;;7.07;69.40;99816.69;10405464;28;20049;-66
2021/11/13 20:38:09;;;;;;;32.03;20.63;;;;;;;6.89;69.73;99818.41;10389417;28;20386;-65
2021/11/13 20:43:11;;;;;;;39.90;24.40;;;;;;;6.80;69.97;99813.63;10386056;28;20081;-65
2021/11/13 20:48:13;;;;;;;43.75;25.15;;;;;;;6.84;70.11;99822.13;10387854;28;20537;-66
2021/11/13 20:53:16;;;;;;;72.38;31.30;;;;;;;6.92;69.71;99820.00;10385901;28;20428;-66
2021/11/13 20:58:18;;;;;;;46.13;25.48;;;;;;;7.03;69.59;99822.97;10389638;28;20057;-66
2021/11/13 21:03:19;;;;;;;68.95;31.92;;;;;;;7.12;69.65;99825.16;10387575;28;20050;-66
2021/11/13 21:08:21;;;;;;;45.47;26.02;;;;;;;7.10;69.51;99827.78;10386793;28;20056;-65
2021/11/13 21:13:27;;;;;;;54.83;27.48;;;;;;;6.96;69.82;99831.94;10388964;28;20053;-66
2021/11/13 21:18:30;;;;;;;49.70;26.25;;;;;;;7.04;69.95;99825.47;10388099;28;20170;-66
2021/11/13 21:23:31;;;;;;;63.33;29.02;;;;;;;7.14;69.56;99826.72;10386007;28;20075;-65
2021/11/13 21:28:33;;;;;;;72.93;30.48;;;;;;;7.08;69.45;99828.81;10387972;28;20387;-66
2021/11/13 21:33:35;;;;;;;41.42;24.77;;;;;;;7.02;69.80;99829.91;10387095;28;20053;-65
2021/11/13 21:38:37;;;;;;;44.78;25.77;;;;;;;6.92;70.06;99833.00;10386953;28;20049;-66
2021/11/13 21:43:38;;;;;;;53.97;28.02;;;;;;;6.96;70.04;99837.16;10386520;28;20345;-65
2021/11/13 21:48:40;;;;;;;35.97;22.75;;;;;;;6.96;70.05;99831.94;10386309;28;20055;-65
2021/11/13 21:53:47;;;;;;;28.27;18.27;;;;;;;6.92;70.26;99840.81;10387573;28;20056;-66
2021/11/13 21:58:49;;;;;;;34.60;21.23;;;;;;;6.91;70.14;99840.00;10386983;28;20061;-66
2021/11/13 22:03:50;;;;;;;29.75;19.20;;;;;;;6.86;70.14;99835.88;10387145;28;20172;-66
2021/11/13 22:08:52;;;;;;;31.23;20.80;;;;;;;6.86;70.21;99835.88;10384389;28;20045;-65
2021/11/13 22:13:54;;;;;;;31.08;20.83;;;;;;;6.91;70.10;99841.75;10386725;28;20184;-65
2021/11/13 22:18:56;;;;;;;33.70;22.20;;;;;;;7.02;69.88;99836.91;10385866;28;20858;-65
2021/11/13 22:23:58;;;;;;;39.65;23.70;;;;;;;7.10;69.84;99840.78;10386270;28;20484;-65
2021/11/13 22:29:00;;;;;;;32.22;21.00;;;;;;;7.14;69.69;99837.13;10382563;28;20449;-65
2021/11/13 22:34:02;;;;;;;31.73;19.05;;;;;;;7.10;69.51;99840.78;10385560;28;20052;-65
2021/11/13 22:39:04;;;;;;;36.22;22.40;;;;;;;6.93;69.82;99840.75;10384637;28;20057;-66
2021/11/13 22:44:06;;;;;;;36.92;20.30;;;;;;;7.03;69.90;99841.16;10382734;28;20589;-67
2021/11/13 22:49:09;;;;;;;22.92;15.88;;;;;;;7.11;69.51;99854.66;10383502;28;20045;-66
2021/11/13 22:54:12;;;;;;;19.23;13.73;;;;;;;7.08;69.61;99855.63;10384723;28;20056;-65
2021/11/13 22:59:16;;;;;;;27.42;16.98;;;;;;;7.22;69.34;99851.56;10384247;28;20460;-66
2021/11/13 23:04:22;;;;;;;18.38;14.38;;;;;;;7.24;69.05;99849.72;10385285;28;20144;-66
2021/11/13 23:09:27;;;;;;;24.70;16.75;;;;;;;7.06;69.18;99859.25;10384186;28;20505;-66
2021/11/13 23:14:39;;;;;;;27.98;18.02;;;;;;;6.85;69.99;99870.63;10384366;28;20425;-67